createdAt,value
2022-12-07T00:01:32.072Z,6.18
2022-12-07T00:04:05.766Z,6.30
2022-12-07T00:06:34.684Z,6.27
2022-12-07T00:09:03.157Z,6.22
2022-12-07T00:11:31.133Z,6.16
2022-12-07T00:14:02.333Z,6.26
2022-12-07T00:16:33.333Z,6.28
2022-12-07T00:19:02.123Z,6.25
2022-12-07T00:21:32.677Z,6.18
2022-12-07T00:24:00.824Z,6.16
2022-12-07T00:26:30.645Z,6.14
2022-12-07T00:29:05.374Z,6.14
2022-12-07T00:31:36.196Z,6.04
2022-12-07T00:34:04.226Z,5.97
2022-12-07T00:36:32.144Z,6.00
2022-12-07T00:39:01.658Z,6.01
2022-12-07T00:41:30.774Z,6.12
2022-12-07T00:43:59.023Z,6.09
2022-12-07T00:46:28.631Z,6.10
2022-12-07T00:48:56.759Z,6.07
2022-12-07T00:51:26.914Z,6.06
2022-12-07T00:53:54.933Z,6.14
2022-12-07T00:56:24.746Z,6.05
2022-12-07T00:58:54.493Z,6.05
2022-12-07T01:01:22.545Z,5.97
2022-12-07T01:03:52.307Z,5.84
2022-12-07T01:06:22.333Z,5.82
2022-12-07T01:08:50.779Z,5.94
2022-12-07T01:11:20.463Z,5.89
2022-12-07T01:13:51.315Z,5.87
2022-12-07T01:16:20.000Z,5.81
2022-12-07T01:18:49.372Z,5.77
2022-12-07T01:21:21.765Z,5.82
2022-12-07T01:23:50.475Z,5.83
2022-12-07T01:26:20.422Z,5.80
2022-12-07T01:28:48.699Z,5.91
2022-12-07T01:31:18.682Z,5.86
2022-12-07T01:33:50.013Z,5.85
2022-12-07T01:36:22.319Z,5.81
2022-12-07T01:38:53.691Z,5.81
2022-12-07T01:41:23.008Z,5.90
2022-12-07T01:44:11.816Z,5.76
2022-12-07T01:46:40.370Z,5.84
2022-12-07T01:49:12.344Z,5.83
2022-12-07T01:51:44.174Z,5.80
2022-12-07T01:54:15.221Z,5.78
2022-12-07T01:56:48.154Z,5.81
2022-12-07T01:59:16.992Z,5.79
2022-12-07T02:01:45.858Z,5.88
2022-12-07T02:04:14.456Z,5.81
2022-12-07T02:06:45.139Z,5.71
2022-12-07T02:09:14.182Z,5.76
2022-12-07T02:11:43.056Z,5.75
2022-12-07T02:14:11.107Z,5.75
2022-12-07T02:16:51.110Z,5.85
2022-12-07T02:20:13.532Z,5.86
2022-12-07T02:23:17.396Z,5.91
2022-12-07T02:26:13.754Z,5.86
2022-12-07T02:29:03.423Z,5.90
2022-12-07T02:31:33.579Z,5.87
2022-12-07T02:34:10.288Z,5.92
2022-12-07T02:36:45.848Z,5.91
2022-12-07T02:39:19.384Z,5.98
2022-12-07T02:41:52.036Z,5.97
2022-12-07T02:44:24.139Z,5.96
2022-12-07T02:46:56.597Z,6.00
2022-12-07T02:49:25.905Z,5.97
2022-12-07T02:51:54.941Z,5.85
2022-12-07T02:54:23.927Z,5.84
2022-12-07T02:56:57.802Z,5.80
2022-12-07T02:59:39.038Z,5.70
2022-12-07T03:02:19.197Z,5.71
2022-12-07T03:04:56.875Z,5.68
2022-12-07T03:07:34.694Z,5.56
2022-12-07T03:10:10.646Z,5.84
2022-12-07T03:12:47.589Z,5.67
2022-12-07T03:15:24.252Z,5.59
2022-12-07T03:17:54.390Z,5.61
2022-12-07T03:20:25.731Z,5.58
2022-12-07T03:22:56.337Z,5.63
2022-12-07T03:25:24.613Z,5.60
2022-12-07T03:27:57.670Z,5.57
2022-12-07T03:30:32.915Z,5.54
2022-12-07T03:33:06.332Z,5.46
2022-12-07T03:35:38.156Z,5.50
2022-12-07T03:38:15.942Z,5.48
2022-12-07T03:40:52.642Z,5.51
2022-12-07T03:43:21.479Z,5.52
2022-12-07T03:45:59.779Z,5.53
2022-12-07T03:48:35.490Z,5.51
2022-12-07T03:51:12.745Z,5.60
2022-12-07T03:53:46.989Z,5.53
2022-12-07T03:56:15.939Z,5.57
2022-12-07T03:58:44.874Z,5.57
2022-12-07T04:01:14.323Z,5.56
2022-12-07T04:03:42.230Z,5.61
2022-12-07T04:06:10.253Z,5.61
2022-12-07T04:08:38.304Z,5.58
2022-12-07T04:11:06.571Z,5.57
2022-12-07T04:13:54.570Z,5.58
2022-12-07T04:16:24.129Z,5.53
2022-12-07T04:18:52.149Z,5.50
2022-12-07T04:21:20.103Z,5.53
2022-12-07T04:23:48.084Z,5.60
2022-12-07T04:26:16.080Z,5.56
2022-12-07T04:28:44.163Z,5.56
2022-12-07T04:31:12.162Z,5.54
2022-12-07T04:33:41.548Z,5.59
2022-12-07T04:36:09.912Z,5.62
2022-12-07T04:38:37.975Z,5.67
2022-12-07T04:41:07.845Z,5.61
2022-12-07T04:43:36.282Z,5.67
2022-12-07T04:46:04.492Z,5.66
2022-12-07T04:48:32.530Z,5.68
2022-12-07T04:51:01.808Z,5.58
2022-12-07T04:53:29.519Z,5.63
2022-12-07T04:55:57.469Z,5.64
2022-12-07T04:58:25.430Z,5.69
2022-12-07T05:00:56.345Z,5.66
2022-12-07T05:03:24.455Z,5.69
2022-12-07T05:05:52.426Z,5.67
2022-12-07T05:08:21.868Z,5.68
2022-12-07T05:10:51.002Z,5.65
2022-12-07T05:13:18.921Z,5.72
2022-12-07T05:15:48.779Z,5.62
2022-12-07T05:18:16.871Z,5.67
2022-12-07T05:20:45.344Z,5.70
2022-12-07T05:23:13.750Z,5.65
2022-12-07T05:25:43.011Z,5.60
2022-12-07T05:28:10.779Z,5.60
2022-12-07T05:30:39.095Z,5.65
2022-12-07T05:33:07.219Z,5.61
2022-12-07T05:35:35.178Z,5.58
2022-12-07T05:38:03.084Z,5.60
2022-12-07T05:40:31.006Z,5.59
2022-12-07T05:43:04.546Z,5.65
2022-12-07T05:45:33.055Z,5.60
2022-12-07T05:48:01.038Z,5.59
2022-12-07T05:50:29.621Z,5.58
2022-12-07T05:53:03.315Z,5.58
2022-12-07T05:55:31.328Z,5.78
2022-12-07T05:58:18.122Z,5.67
2022-12-07T06:00:50.864Z,5.68
2022-12-07T06:03:19.573Z,5.65
2022-12-07T06:05:47.691Z,5.64
2022-12-07T06:08:16.473Z,5.61
2022-12-07T06:10:44.422Z,5.61
2022-12-07T06:13:12.748Z,5.55
2022-12-07T06:15:40.756Z,5.58
2022-12-07T06:18:08.750Z,5.65
2022-12-07T06:20:36.727Z,5.65
2022-12-07T06:23:04.709Z,5.61
2022-12-07T06:25:32.780Z,5.66
2022-12-07T06:28:00.707Z,5.59
2022-12-07T06:30:30.007Z,5.57
2022-12-07T06:32:57.915Z,5.55
2022-12-07T06:35:25.943Z,5.60
2022-12-07T06:37:53.836Z,5.62
2022-12-07T06:40:21.791Z,5.68
2022-12-07T06:42:49.715Z,5.63
2022-12-07T06:45:17.849Z,5.67
2022-12-07T06:47:47.272Z,5.63
2022-12-07T06:50:15.524Z,5.71
2022-12-07T06:52:43.484Z,5.72
2022-12-07T06:55:11.459Z,5.71
2022-12-07T06:57:39.546Z,5.65
2022-12-07T07:00:08.866Z,5.74
2022-12-07T07:02:36.914Z,5.83
2022-12-07T07:05:06.438Z,5.74
2022-12-07T07:07:51.884Z,5.79
2022-12-07T07:10:22.704Z,5.83
2022-12-07T07:12:55.665Z,5.84
2022-12-07T07:15:25.235Z,5.83
2022-12-07T07:17:53.285Z,5.89
2022-12-07T07:20:23.212Z,5.91
2022-12-07T07:22:51.853Z,5.87
2022-12-07T07:25:19.956Z,5.82
2022-12-07T07:27:48.123Z,5.84
2022-12-07T07:30:17.025Z,5.86
2022-12-07T07:32:44.985Z,5.96
2022-12-07T07:35:13.295Z,6.02
2022-12-07T07:37:42.938Z,6.10
2022-12-07T07:40:12.069Z,6.06
2022-12-07T07:42:40.044Z,6.10
2022-12-07T07:45:09.130Z,6.18
2022-12-07T07:47:37.128Z,6.23
2022-12-07T07:50:05.998Z,6.25
2022-12-07T07:52:34.070Z,6.28
2022-12-07T07:55:03.760Z,6.29
2022-12-07T07:57:31.730Z,6.24
2022-12-07T07:59:59.936Z,6.28
2022-12-07T08:02:30.524Z,6.33
2022-12-07T08:04:58.527Z,6.36
2022-12-07T08:07:26.539Z,6.34
2022-12-07T08:09:54.470Z,6.39
2022-12-07T08:12:23.787Z,6.32
2022-12-07T08:14:51.756Z,6.33
2022-12-07T08:17:19.658Z,6.32
2022-12-07T08:19:47.516Z,6.35
2022-12-07T08:22:15.637Z,6.30
2022-12-07T08:24:43.539Z,6.36
2022-12-07T08:27:11.518Z,6.26
2022-12-07T08:29:40.857Z,6.30
2022-12-07T08:32:09.847Z,6.28
2022-12-07T08:34:37.983Z,6.18
2022-12-07T08:37:05.975Z,6.25
2022-12-07T08:39:33.984Z,6.24
2022-12-07T08:42:01.987Z,6.24
2022-12-07T08:44:29.970Z,6.28
2022-12-07T08:47:03.318Z,6.25
2022-12-07T08:49:35.291Z,6.27
2022-12-07T08:52:06.122Z,6.29
2022-12-07T08:54:38.268Z,6.30
2022-12-07T08:57:07.309Z,6.30
2022-12-07T08:59:37.102Z,6.21
2022-12-07T09:02:06.796Z,6.21
2022-12-07T09:04:34.868Z,6.20
2022-12-07T09:07:02.996Z,6.29
2022-12-07T09:09:31.086Z,6.28
2022-12-07T09:11:59.012Z,6.26
2022-12-07T09:14:27.143Z,6.27
2022-12-07T09:16:55.242Z,6.25
2022-12-07T09:19:24.598Z,6.39
2022-12-07T09:21:52.880Z,6.46
2022-12-07T09:24:20.808Z,6.45
2022-12-07T09:26:48.784Z,6.43
2022-12-07T09:29:16.703Z,6.45
2022-12-07T09:31:44.665Z,6.48
2022-12-07T09:34:12.729Z,6.48
2022-12-07T09:36:43.329Z,6.50
2022-12-07T09:39:11.708Z,6.57
2022-12-07T09:41:41.707Z,6.48
2022-12-07T09:44:13.792Z,6.51
2022-12-07T09:46:45.063Z,6.50
2022-12-07T09:49:17.035Z,6.57
2022-12-07T09:51:46.634Z,6.56
2022-12-07T09:54:15.945Z,6.53
2022-12-07T09:56:44.329Z,6.52
2022-12-07T09:59:17.025Z,6.46
2022-12-07T10:01:45.736Z,6.51
2022-12-07T10:04:17.448Z,6.49
2022-12-07T10:06:48.906Z,6.48
2022-12-07T10:09:18.855Z,6.53
2022-12-07T10:12:04.734Z,6.50
2022-12-07T10:15:05.840Z,6.45
2022-12-07T10:17:42.048Z,6.51
2022-12-07T10:20:21.467Z,6.50
2022-12-07T10:22:57.771Z,6.52
2022-12-07T10:25:28.951Z,6.53
2022-12-07T10:28:04.748Z,6.59
2022-12-07T10:30:34.757Z,6.65
2022-12-07T10:33:02.708Z,6.61
2022-12-07T10:35:32.045Z,6.56
2022-12-07T10:38:02.147Z,6.63
2022-12-07T10:40:37.626Z,6.74
2022-12-07T10:43:19.820Z,6.70
2022-12-07T10:46:15.792Z,6.74
2022-12-07T10:48:54.487Z,6.69
2022-12-07T10:51:28.878Z,6.80
2022-12-07T10:54:12.108Z,6.74
2022-12-07T10:57:02.630Z,6.78
2022-12-07T10:59:51.506Z,6.84
2022-12-07T11:02:32.207Z,6.90
2022-12-07T11:05:18.786Z,6.82
2022-12-07T11:08:01.029Z,6.91
2022-12-07T11:10:40.821Z,6.87
2022-12-07T11:13:28.452Z,6.98
2022-12-07T11:16:10.445Z,7.02
2022-12-07T11:18:51.280Z,7.03
2022-12-07T11:21:26.309Z,6.94
2022-12-07T11:24:02.143Z,6.94
2022-12-07T11:26:46.268Z,7.04
2022-12-07T11:29:28.481Z,7.14
2022-12-07T11:32:07.629Z,7.08
2022-12-07T11:34:45.909Z,6.89
2022-12-07T11:37:19.661Z,6.86
2022-12-07T11:39:53.502Z,6.82
2022-12-07T11:42:26.667Z,6.84
2022-12-07T11:44:59.722Z,6.92
2022-12-07T11:47:37.161Z,6.97
2022-12-07T11:50:16.784Z,6.93
2022-12-07T11:52:50.525Z,6.97
2022-12-07T11:55:23.902Z,6.84
2022-12-07T11:58:02.589Z,6.95
2022-12-07T12:00:30.511Z,6.94
2022-12-07T12:03:04.226Z,6.98
2022-12-07T12:05:32.607Z,6.94
2022-12-07T12:11:03.216Z,6.93
2022-12-07T12:17:15.580Z,7.15
2022-12-07T12:19:45.162Z,7.13
2022-12-07T12:22:18.583Z,7.19
2022-12-07T12:24:48.456Z,7.20
2022-12-07T12:27:24.057Z,7.36
2022-12-07T12:29:57.835Z,7.34
2022-12-07T12:32:35.351Z,7.37
2022-12-07T12:35:20.895Z,7.21
2022-12-07T12:37:49.811Z,7.25
2022-12-07T12:40:50.017Z,7.37
2022-12-07T12:43:53.125Z,7.36
2022-12-07T12:46:50.379Z,7.15
2022-12-07T12:49:39.088Z,7.24
2022-12-07T12:52:52.507Z,7.21
2022-12-07T12:55:53.238Z,7.20
2022-12-07T12:58:32.789Z,7.08
2022-12-07T13:01:47.087Z,7.08
2022-12-07T13:04:29.622Z,7.02
2022-12-07T13:06:57.696Z,6.91
2022-12-07T13:09:29.273Z,6.90
2022-12-07T13:12:03.939Z,6.97
2022-12-07T13:15:01.664Z,6.88
2022-12-07T13:18:01.937Z,6.79
2022-12-07T13:20:46.407Z,6.82
2022-12-07T13:23:16.005Z,6.82
2022-12-07T13:25:53.298Z,6.98
2022-12-07T13:28:27.069Z,6.88
2022-12-07T13:31:05.663Z,7.04
2022-12-07T13:33:37.199Z,7.23
2022-12-07T13:36:23.899Z,7.14
2022-12-07T13:38:55.358Z,7.12
2022-12-07T13:41:24.764Z,7.00
2022-12-07T13:43:56.450Z,6.98
2022-12-07T13:46:33.252Z,6.91
2022-12-07T13:49:01.534Z,6.93
2022-12-07T13:51:36.411Z,6.98
2022-12-07T13:54:13.655Z,6.88
2022-12-07T13:56:42.215Z,6.82
2022-12-07T13:59:17.236Z,6.75
2022-12-07T14:01:47.992Z,6.78
2022-12-07T14:04:20.956Z,6.76
2022-12-07T14:06:52.632Z,6.78
2022-12-07T14:09:23.442Z,6.74
2022-12-07T14:11:53.801Z,6.74
2022-12-07T14:14:24.347Z,6.81
2022-12-07T14:17:01.627Z,6.84
2022-12-07T14:19:57.765Z,6.84
2022-12-07T14:22:35.972Z,6.79
2022-12-07T14:25:22.759Z,6.73
2022-12-07T14:27:57.591Z,6.74
2022-12-07T14:30:28.030Z,6.72
2022-12-07T14:33:00.253Z,6.74
2022-12-07T14:35:28.807Z,6.75
2022-12-07T14:37:58.491Z,6.67
2022-12-07T14:40:28.978Z,6.66
2022-12-07T14:42:59.658Z,6.65
2022-12-07T14:45:27.710Z,6.64
2022-12-07T14:53:41.509Z,7.07
2022-12-07T14:56:19.683Z,7.25
2022-12-07T14:58:50.211Z,7.28
2022-12-07T15:01:27.207Z,7.17
2022-12-07T15:04:06.477Z,7.03
2022-12-07T15:06:58.840Z,6.86
2022-12-07T15:09:31.244Z,6.82
2022-12-07T15:12:09.053Z,6.77
2022-12-07T15:14:43.425Z,6.73
2022-12-07T15:17:31.458Z,6.74
2022-12-07T15:20:08.273Z,6.71
2022-12-07T15:22:42.207Z,6.66
2022-12-07T15:25:15.446Z,6.61
2022-12-07T15:27:48.112Z,6.64
2022-12-07T15:30:29.303Z,6.55
2022-12-07T15:32:57.242Z,6.59
2022-12-07T15:35:39.168Z,6.67
2022-12-07T15:38:08.296Z,6.92
2022-12-07T15:40:39.129Z,7.09
2022-12-07T15:43:35.448Z,7.17
2022-12-07T15:46:02.453Z,7.15
2022-12-07T15:48:38.362Z,6.98
2022-12-07T15:51:24.600Z,6.83
2022-12-07T15:54:01.513Z,6.81
2022-12-07T15:56:30.912Z,6.66
2022-12-07T15:59:03.627Z,6.58
2022-12-07T16:01:34.905Z,6.65
2022-12-07T16:04:05.125Z,6.61
2022-12-07T16:06:33.268Z,6.62
2022-12-07T16:09:03.786Z,6.58
2022-12-07T16:11:42.664Z,6.52
2022-12-07T16:14:13.076Z,6.53
2022-12-07T16:16:42.754Z,6.49
2022-12-07T16:19:16.177Z,6.49
2022-12-07T16:21:53.367Z,6.50
2022-12-07T16:24:26.984Z,6.50
2022-12-07T16:27:24.673Z,6.47
2022-12-07T16:30:18.981Z,6.48
2022-12-07T16:33:12.169Z,6.45
2022-12-07T16:35:47.004Z,6.44
2022-12-07T16:38:30.346Z,6.43
2022-12-07T16:41:19.744Z,6.47
2022-12-07T16:43:49.177Z,6.42
2022-12-07T16:46:32.130Z,6.38
2022-12-07T16:49:26.911Z,6.35
2022-12-07T16:55:02.102Z,6.23
2022-12-07T16:57:55.724Z,6.25
2022-12-07T17:00:44.674Z,6.27
2022-12-07T17:03:22.961Z,6.26
2022-12-07T17:06:06.540Z,6.25
2022-12-07T17:08:44.770Z,6.24
2022-12-07T17:11:35.292Z,6.27
2022-12-07T17:14:30.031Z,6.22
2022-12-07T17:17:08.895Z,6.25
2022-12-07T17:19:40.206Z,6.29
2022-12-07T17:22:19.975Z,6.35
2022-12-07T17:25:12.204Z,6.28
2022-12-07T17:28:10.895Z,6.26
2022-12-07T17:30:56.859Z,6.22
2022-12-07T17:33:34.534Z,6.28
2022-12-07T17:36:06.033Z,6.34
2022-12-07T17:38:42.382Z,6.28
2022-12-07T17:41:40.300Z,6.48
2022-12-07T17:44:31.249Z,6.49
2022-12-07T17:47:15.506Z,6.41
2022-12-07T17:50:03.257Z,6.59
2022-12-07T17:53:14.064Z,6.61
2022-12-07T17:58:41.273Z,6.47
2022-12-07T18:01:24.347Z,6.50
2022-12-07T18:04:02.774Z,6.59
2022-12-07T18:09:27.465Z,6.60
2022-12-07T18:15:47.859Z,6.50
2022-12-07T18:18:20.693Z,6.48
2022-12-07T18:21:10.200Z,6.46
2022-12-07T18:24:13.335Z,6.46
2022-12-07T18:26:56.480Z,6.42
2022-12-07T18:29:50.852Z,6.47
2022-12-07T18:32:31.185Z,6.45
2022-12-07T18:35:10.257Z,6.43
2022-12-07T18:40:52.626Z,6.40
2022-12-07T18:43:40.055Z,6.48
2022-12-07T18:46:21.901Z,6.44
2022-12-07T18:48:52.744Z,6.43
2022-12-07T18:51:49.009Z,6.41
2022-12-07T18:54:25.341Z,6.37
2022-12-07T18:56:59.157Z,6.33
2022-12-07T19:00:03.506Z,6.30
2022-12-07T19:02:42.342Z,6.35
2022-12-07T19:05:35.283Z,6.32
2022-12-07T19:08:12.566Z,6.27
2022-12-07T19:10:54.689Z,6.26
2022-12-07T19:13:35.904Z,6.23
2022-12-07T19:16:23.519Z,6.28
2022-12-07T19:18:58.539Z,6.24
2022-12-07T19:21:39.379Z,6.26
2022-12-07T19:27:31.115Z,6.20
2022-12-07T19:30:07.818Z,6.23
2022-12-07T19:32:38.055Z,6.15
2022-12-07T19:35:19.337Z,6.18
2022-12-07T19:37:59.718Z,6.21
2022-12-07T19:40:42.611Z,6.22
2022-12-07T19:43:13.379Z,6.25
2022-12-07T19:45:45.675Z,6.26
2022-12-07T19:48:27.741Z,6.17
2022-12-07T19:51:05.444Z,6.17
2022-12-07T19:53:38.222Z,6.12
2022-12-07T19:56:16.673Z,6.13
2022-12-07T19:58:47.032Z,6.02
2022-12-07T20:01:29.422Z,6.02
2022-12-07T20:03:57.756Z,6.08
2022-12-07T20:06:35.033Z,6.06
2022-12-07T20:09:15.089Z,6.06
2022-12-07T20:12:03.415Z,6.05
2022-12-07T20:14:32.526Z,6.07
2022-12-07T20:17:07.291Z,6.03
2022-12-07T20:19:39.090Z,6.07
2022-12-07T20:22:12.210Z,6.01
2022-12-07T20:24:43.028Z,6.05
2022-12-07T20:27:13.734Z,6.05
2022-12-07T20:29:41.635Z,6.14
2022-12-07T20:32:14.255Z,6.05
2022-12-07T20:34:43.522Z,6.06
2022-12-07T20:37:11.321Z,5.99
2022-12-07T20:39:39.169Z,5.90
2022-12-07T20:42:24.097Z,5.87
2022-12-07T20:44:58.285Z,5.88
2022-12-07T20:47:37.490Z,5.83
2022-12-07T20:50:05.708Z,5.81
2022-12-07T20:52:35.223Z,5.73
2022-12-07T20:55:03.232Z,5.61
2022-12-07T20:57:31.101Z,5.60
2022-12-07T21:00:00.676Z,5.62
2022-12-07T21:02:28.660Z,5.65
2022-12-07T21:05:01.036Z,5.63
2022-12-07T21:07:28.938Z,5.67
2022-12-07T21:09:56.674Z,5.67
2022-12-07T21:12:24.448Z,5.88
2022-12-07T21:14:52.200Z,6.00
2022-12-07T21:17:19.908Z,6.15
2022-12-07T21:19:47.829Z,6.36
2022-12-07T21:22:16.944Z,6.41
2022-12-07T21:24:46.630Z,6.49
2022-12-07T21:27:14.502Z,6.59
2022-12-07T21:29:45.206Z,6.50
2022-12-07T21:32:18.201Z,6.52
2022-12-07T21:34:48.701Z,6.74
2022-12-07T21:37:17.777Z,6.69
2022-12-07T21:39:47.982Z,6.37
2022-12-07T21:42:18.525Z,6.22
2022-12-07T21:44:46.283Z,6.09
2022-12-07T21:47:17.036Z,5.96
2022-12-07T21:49:44.770Z,5.90
2022-12-07T21:52:12.494Z,5.82
2022-12-07T21:54:42.711Z,5.80
2022-12-07T21:57:20.558Z,5.80
2022-12-07T21:59:53.123Z,5.74
2022-12-07T22:02:28.053Z,5.73
2022-12-07T22:04:55.882Z,5.75
2022-12-07T22:07:26.193Z,5.83
2022-12-07T22:09:58.572Z,5.83
2022-12-07T22:12:26.341Z,5.82
2022-12-07T22:15:16.491Z,5.73
2022-12-07T22:17:44.186Z,5.70
2022-12-07T22:20:12.342Z,5.70
2022-12-07T22:22:40.608Z,5.66
2022-12-07T22:25:16.078Z,5.57
2022-12-07T22:27:48.708Z,5.41
2022-12-07T22:30:19.452Z,5.34
2022-12-07T22:32:54.388Z,5.36
2022-12-07T22:35:28.169Z,5.37
2022-12-07T22:37:59.130Z,5.30
2022-12-07T22:40:32.925Z,5.24
2022-12-07T22:43:05.777Z,5.17
2022-12-07T22:45:41.446Z,5.22
2022-12-07T22:48:09.707Z,5.29
2022-12-07T22:50:38.176Z,5.18
2022-12-07T22:53:06.138Z,5.05
2022-12-07T22:55:39.540Z,5.03
2022-12-07T22:58:14.187Z,5.01
2022-12-07T23:00:53.551Z,5.03
2022-12-07T23:03:23.896Z,5.07
2022-12-07T23:05:52.676Z,5.06
2022-12-07T23:08:23.313Z,4.97
2022-12-07T23:10:57.337Z,4.99
2022-12-07T23:13:32.930Z,5.02
2022-12-07T23:16:01.402Z,5.01
2022-12-07T23:18:29.294Z,4.95
2022-12-07T23:20:57.775Z,4.95
2022-12-07T23:23:25.756Z,4.91
2022-12-07T23:25:54.991Z,4.86
2022-12-07T23:28:25.774Z,4.85
2022-12-07T23:30:53.493Z,4.83
2022-12-07T23:33:24.083Z,4.86
2022-12-07T23:35:52.220Z,4.91
2022-12-07T23:38:19.946Z,4.86
2022-12-07T23:40:47.671Z,4.83
2022-12-07T23:43:16.805Z,4.76
2022-12-07T23:45:46.134Z,4.76
2022-12-07T23:48:15.979Z,4.72
2022-12-07T23:50:43.871Z,4.70
2022-12-07T23:53:13.467Z,4.70
2022-12-07T23:55:45.852Z,4.69
2022-12-07T23:58:13.586Z,4.65
